sensor_id;sensor_type;location;lat;lon;timestamp;temperature;humidity
59533;DHT22;45351;53.596;10.000;2022-08-04T00:00:04;25.50;60.80
59533;DHT22;45351;53.596;10.000;2022-08-04T00:02:45;25.40;61.00
59533;DHT22;45351;53.596;10.000;2022-08-04T00:05:25;25.40;60.90
59533;DHT22;45351;53.596;10.000;2022-08-04T00:08:04;25.50;61.40
59533;DHT22;45351;53.596;10.000;2022-08-04T00:10:32;25.50;61.20
59533;DHT22;45351;53.596;10.000;2022-08-04T00:13:02;25.40;61.00
59533;DHT22;45351;53.596;10.000;2022-08-04T00:15:32;25.50;60.60
59533;DHT22;45351;53.596;10.000;2022-08-04T00:18:02;25.50;61.20
59533;DHT22;45351;53.596;10.000;2022-08-04T00:20:32;25.50;61.10
59533;DHT22;45351;53.596;10.000;2022-08-04T00:23:00;25.50;61.20
59533;DHT22;45351;53.596;10.000;2022-08-04T00:25:27;25.50;61.10
59533;DHT22;45351;53.596;10.000;2022-08-04T00:27:55;25.50;61.50
59533;DHT22;45351;53.596;10.000;2022-08-04T00:30:22;25.50;62.10
59533;DHT22;45351;53.596;10.000;2022-08-04T00:32:51;25.50;63.20
59533;DHT22;45351;53.596;10.000;2022-08-04T00:35:18;25.40;63.00
59533;DHT22;45351;53.596;10.000;2022-08-04T00:37:45;25.40;63.20
59533;DHT22;45351;53.596;10.000;2022-08-04T00:40:22;25.40;63.30
59533;DHT22;45351;53.596;10.000;2022-08-04T00:42:58;25.40;63.20
59533;DHT22;45351;53.596;10.000;2022-08-04T00:45:49;25.40;62.80
59533;DHT22;45351;53.596;10.000;2022-08-04T00:48:34;25.40;63.80
59533;DHT22;45351;53.596;10.000;2022-08-04T00:51:09;25.40;63.90
59533;DHT22;45351;53.596;10.000;2022-08-04T00:53:46;25.40;63.80
59533;DHT22;45351;53.596;10.000;2022-08-04T00:56:40;25.40;64.00
59533;DHT22;45351;53.596;10.000;2022-08-04T00:59:20;25.40;63.40
59533;DHT22;45351;53.596;10.000;2022-08-04T01:01:58;25.30;63.90
59533;DHT22;45351;53.596;10.000;2022-08-04T01:04:40;25.40;63.40
59533;DHT22;45351;53.596;10.000;2022-08-04T01:07:30;25.30;63.20
59533;DHT22;45351;53.596;10.000;2022-08-04T01:10:04;25.40;62.70
59533;DHT22;45351;53.596;10.000;2022-08-04T01:13:05;25.40;62.70
59533;DHT22;45351;53.596;10.000;2022-08-04T01:15:44;25.40;62.60
59533;DHT22;45351;53.596;10.000;2022-08-04T01:18:20;25.40;62.70
59533;DHT22;45351;53.596;10.000;2022-08-04T01:21:01;25.40;62.50
59533;DHT22;45351;53.596;10.000;2022-08-04T01:23:54;25.40;62.40
59533;DHT22;45351;53.596;10.000;2022-08-04T01:26:42;25.40;62.30
59533;DHT22;45351;53.596;10.000;2022-08-04T01:29:15;25.40;62.40
59533;DHT22;45351;53.596;10.000;2022-08-04T01:32:03;25.40;62.30
59533;DHT22;45351;53.596;10.000;2022-08-04T01:34:35;25.40;62.60
59533;DHT22;45351;53.596;10.000;2022-08-04T01:37:13;25.40;62.30
59533;DHT22;45351;53.596;10.000;2022-08-04T01:39:50;25.40;62.60
59533;DHT22;45351;53.596;10.000;2022-08-04T01:42:19;25.40;62.40
59533;DHT22;45351;53.596;10.000;2022-08-04T01:44:49;25.40;62.40
59533;DHT22;45351;53.596;10.000;2022-08-04T01:47:20;25.40;62.40
59533;DHT22;45351;53.596;10.000;2022-08-04T01:50:07;25.40;62.30
59533;DHT22;45351;53.596;10.000;2022-08-04T01:52:55;25.40;62.40
59533;DHT22;45351;53.596;10.000;2022-08-04T01:55:42;25.40;62.40
59533;DHT22;45351;53.596;10.000;2022-08-04T01:58:31;25.40;62.30
59533;DHT22;45351;53.596;10.000;2022-08-04T02:01:20;25.40;62.30
59533;DHT22;45351;53.596;10.000;2022-08-04T02:03:54;25.40;62.30
59533;DHT22;45351;53.596;10.000;2022-08-04T02:06:30;25.40;62.30
59533;DHT22;45351;53.596;10.000;2022-08-04T02:09:03;25.40;62.30
59533;DHT22;45351;53.596;10.000;2022-08-04T02:11:33;25.40;62.30
59533;DHT22;45351;53.596;10.000;2022-08-04T02:14:12;25.40;62.20
59533;DHT22;45351;53.596;10.000;2022-08-04T02:17:09;25.40;62.30
59533;DHT22;45351;53.596;10.000;2022-08-04T02:19:50;25.40;62.30
59533;DHT22;45351;53.596;10.000;2022-08-04T02:22:21;25.40;62.40
59533;DHT22;45351;53.596;10.000;2022-08-04T02:24:57;25.40;62.40
59533;DHT22;45351;53.596;10.000;2022-08-04T02:27:28;25.40;62.40
59533;DHT22;45351;53.596;10.000;2022-08-04T02:29:59;25.40;62.40
59533;DHT22;45351;53.596;10.000;2022-08-04T02:32:32;25.40;62.40
59533;DHT22;45351;53.596;10.000;2022-08-04T02:35:06;25.40;62.50
59533;DHT22;45351;53.596;10.000;2022-08-04T02:37:34;25.40;62.50
59533;DHT22;45351;53.596;10.000;2022-08-04T02:40:04;25.40;62.40
59533;DHT22;45351;53.596;10.000;2022-08-04T02:42:32;25.40;62.60
59533;DHT22;45351;53.596;10.000;2022-08-04T02:44:59;25.40;62.60
59533;DHT22;45351;53.596;10.000;2022-08-04T02:47:29;25.40;62.70
59533;DHT22;45351;53.596;10.000;2022-08-04T02:49:57;25.40;62.80
59533;DHT22;45351;53.596;10.000;2022-08-04T02:52:24;25.40;62.80
59533;DHT22;45351;53.596;10.000;2022-08-04T02:54:54;25.40;62.90
59533;DHT22;45351;53.596;10.000;2022-08-04T02:57:23;25.40;62.80
59533;DHT22;45351;53.596;10.000;2022-08-04T03:00:05;25.40;62.80
59533;DHT22;45351;53.596;10.000;2022-08-04T03:02:46;25.40;62.80
59533;DHT22;45351;53.596;10.000;2022-08-04T03:05:18;25.40;63.00
59533;DHT22;45351;53.596;10.000;2022-08-04T03:08:11;25.40;63.00
59533;DHT22;45351;53.596;10.000;2022-08-04T03:11:10;25.30;62.90
59533;DHT22;45351;53.596;10.000;2022-08-04T03:20:37;25.30;63.00
59533;DHT22;45351;53.596;10.000;2022-08-04T03:23:44;25.30;63.10
59533;DHT22;45351;53.596;10.000;2022-08-04T03:26:56;25.30;63.10
59533;DHT22;45351;53.596;10.000;2022-08-04T03:30:02;25.30;63.10
59533;DHT22;45351;53.596;10.000;2022-08-04T03:32:48;25.30;63.20
59533;DHT22;45351;53.596;10.000;2022-08-04T03:38:50;25.30;63.20
59533;DHT22;45351;53.596;10.000;2022-08-04T03:41:35;25.30;63.30
59533;DHT22;45351;53.596;10.000;2022-08-04T03:47:22;25.30;63.30
59533;DHT22;45351;53.596;10.000;2022-08-04T03:50:11;25.30;63.30
59533;DHT22;45351;53.596;10.000;2022-08-04T03:58:54;25.30;63.20
59533;DHT22;45351;53.596;10.000;2022-08-04T04:01:50;25.30;63.10
59533;DHT22;45351;53.596;10.000;2022-08-04T04:04:41;25.30;63.10
59533;DHT22;45351;53.596;10.000;2022-08-04T04:07:41;25.30;63.20
59533;DHT22;45351;53.596;10.000;2022-08-04T04:10:24;25.30;63.20
59533;DHT22;45351;53.596;10.000;2022-08-04T04:13:26;25.30;63.20
59533;DHT22;45351;53.596;10.000;2022-08-04T04:16:13;25.30;63.30
59533;DHT22;45351;53.596;10.000;2022-08-04T04:19:00;25.30;63.20
59533;DHT22;45351;53.596;10.000;2022-08-04T04:21:56;25.30;63.30
59533;DHT22;45351;53.596;10.000;2022-08-04T04:24:39;25.30;63.10
59533;DHT22;45351;53.596;10.000;2022-08-04T04:27:17;25.30;63.00
59533;DHT22;45351;53.596;10.000;2022-08-04T04:30:05;25.40;63.00
59533;DHT22;45351;53.596;10.000;2022-08-04T04:35:32;25.40;62.70
59533;DHT22;45351;53.596;10.000;2022-08-04T04:38:20;25.40;62.60
59533;DHT22;45351;53.596;10.000;2022-08-04T04:41:03;25.40;62.60
59533;DHT22;45351;53.596;10.000;2022-08-04T04:46:49;25.50;62.50
59533;DHT22;45351;53.596;10.000;2022-08-04T04:49:24;25.50;62.60
59533;DHT22;45351;53.596;10.000;2022-08-04T04:51:59;25.50;62.50
59533;DHT22;45351;53.596;10.000;2022-08-04T04:54:33;25.50;62.50
59533;DHT22;45351;53.596;10.000;2022-08-04T04:57:10;25.50;62.40
59533;DHT22;45351;53.596;10.000;2022-08-04T04:59:44;25.50;62.30
59533;DHT22;45351;53.596;10.000;2022-08-04T05:02:32;25.50;62.30
59533;DHT22;45351;53.596;10.000;2022-08-04T05:05:20;25.50;62.30
59533;DHT22;45351;53.596;10.000;2022-08-04T05:08:02;25.60;62.40
59533;DHT22;45351;53.596;10.000;2022-08-04T05:10:48;25.50;62.20
59533;DHT22;45351;53.596;10.000;2022-08-04T05:13:33;25.60;62.30
59533;DHT22;45351;53.596;10.000;2022-08-04T05:16:06;25.60;62.30
59533;DHT22;45351;53.596;10.000;2022-08-04T05:18:39;25.60;62.20
59533;DHT22;45351;53.596;10.000;2022-08-04T05:24:05;25.60;62.20
59533;DHT22;45351;53.596;10.000;2022-08-04T05:26:38;25.60;62.20
59533;DHT22;45351;53.596;10.000;2022-08-04T05:29:09;25.60;62.20
59533;DHT22;45351;53.596;10.000;2022-08-04T05:31:40;25.60;62.20
59533;DHT22;45351;53.596;10.000;2022-08-04T05:34:12;25.60;62.10
59533;DHT22;45351;53.596;10.000;2022-08-04T05:36:43;25.60;62.10
59533;DHT22;45351;53.596;10.000;2022-08-04T05:39:16;25.70;62.10
59533;DHT22;45351;53.596;10.000;2022-08-04T05:41:44;25.70;62.00
59533;DHT22;45351;53.596;10.000;2022-08-04T05:44:14;25.70;61.90
59533;DHT22;45351;53.596;10.000;2022-08-04T05:46:42;25.70;61.80
59533;DHT22;45351;53.596;10.000;2022-08-04T05:49:10;25.70;61.80
59533;DHT22;45351;53.596;10.000;2022-08-04T05:51:38;25.70;61.80
59533;DHT22;45351;53.596;10.000;2022-08-04T05:54:06;25.70;61.80
59533;DHT22;45351;53.596;10.000;2022-08-04T05:56:34;25.70;61.70
59533;DHT22;45351;53.596;10.000;2022-08-04T05:59:03;25.70;61.60
59533;DHT22;45351;53.596;10.000;2022-08-04T06:01:32;25.70;61.60
59533;DHT22;45351;53.596;10.000;2022-08-04T06:04:00;25.80;61.60
59533;DHT22;45351;53.596;10.000;2022-08-04T06:06:30;25.70;61.50
59533;DHT22;45351;53.596;10.000;2022-08-04T06:08:58;25.80;61.50
59533;DHT22;45351;53.596;10.000;2022-08-04T06:11:26;25.70;61.50
59533;DHT22;45351;53.596;10.000;2022-08-04T06:13:56;25.80;61.50
59533;DHT22;45351;53.596;10.000;2022-08-04T06:16:29;25.80;61.60
59533;DHT22;45351;53.596;10.000;2022-08-04T06:19:00;25.80;61.60
59533;DHT22;45351;53.596;10.000;2022-08-04T06:21:31;25.80;61.60
59533;DHT22;45351;53.596;10.000;2022-08-04T06:24:01;25.80;61.60
59533;DHT22;45351;53.596;10.000;2022-08-04T06:26:31;25.80;61.50
59533;DHT22;45351;53.596;10.000;2022-08-04T06:28:59;25.80;61.40
59533;DHT22;45351;53.596;10.000;2022-08-04T06:31:27;25.80;61.30
59533;DHT22;45351;53.596;10.000;2022-08-04T06:34:09;25.80;61.30
59533;DHT22;45351;53.596;10.000;2022-08-04T06:36:38;25.80;61.30
59533;DHT22;45351;53.596;10.000;2022-08-04T06:39:09;25.90;61.40
59533;DHT22;45351;53.596;10.000;2022-08-04T06:41:37;25.90;61.50
59533;DHT22;45351;53.596;10.000;2022-08-04T06:44:07;25.90;61.30
59533;DHT22;45351;53.596;10.000;2022-08-04T06:46:37;25.90;61.20
59533;DHT22;45351;53.596;10.000;2022-08-04T06:49:06;25.90;61.10
59533;DHT22;45351;53.596;10.000;2022-08-04T06:51:34;25.90;61.00
59533;DHT22;45351;53.596;10.000;2022-08-04T06:54:03;25.90;60.90
59533;DHT22;45351;53.596;10.000;2022-08-04T06:56:32;25.90;60.80
59533;DHT22;45351;53.596;10.000;2022-08-04T06:59:00;25.90;60.70
59533;DHT22;45351;53.596;10.000;2022-08-04T07:01:28;25.90;60.70
59533;DHT22;45351;53.596;10.000;2022-08-04T07:03:56;25.90;60.70
59533;DHT22;45351;53.596;10.000;2022-08-04T07:06:23;25.90;60.70
59533;DHT22;45351;53.596;10.000;2022-08-04T07:08:51;25.90;60.70
59533;DHT22;45351;53.596;10.000;2022-08-04T07:11:20;25.90;60.60
59533;DHT22;45351;53.596;10.000;2022-08-04T07:13:48;25.90;60.60
59533;DHT22;45351;53.596;10.000;2022-08-04T07:16:16;26.00;60.70
59533;DHT22;45351;53.596;10.000;2022-08-04T07:18:44;25.90;60.50
59533;DHT22;45351;53.596;10.000;2022-08-04T07:21:18;26.00;60.60
59533;DHT22;45351;53.596;10.000;2022-08-04T07:23:46;26.00;60.50
59533;DHT22;45351;53.596;10.000;2022-08-04T07:26:13;26.00;60.50
59533;DHT22;45351;53.596;10.000;2022-08-04T07:28:43;26.00;60.50
59533;DHT22;45351;53.596;10.000;2022-08-04T07:31:12;26.00;60.50
59533;DHT22;45351;53.596;10.000;2022-08-04T07:33:40;26.00;60.50
59533;DHT22;45351;53.596;10.000;2022-08-04T07:36:08;26.00;60.40
59533;DHT22;45351;53.596;10.000;2022-08-04T07:38:34;26.00;60.30
59533;DHT22;45351;53.596;10.000;2022-08-04T07:41:01;26.00;60.30
59533;DHT22;45351;53.596;10.000;2022-08-04T07:43:30;26.00;60.20
59533;DHT22;45351;53.596;10.000;2022-08-04T07:45:58;26.00;60.20
59533;DHT22;45351;53.596;10.000;2022-08-04T07:48:25;26.00;60.20
59533;DHT22;45351;53.596;10.000;2022-08-04T07:50:52;26.00;60.20
59533;DHT22;45351;53.596;10.000;2022-08-04T07:53:20;26.00;60.20
59533;DHT22;45351;53.596;10.000;2022-08-04T07:55:48;26.00;60.40
59533;DHT22;45351;53.596;10.000;2022-08-04T07:58:15;26.00;60.50
59533;DHT22;45351;53.596;10.000;2022-08-04T08:00:44;26.00;60.50
59533;DHT22;45351;53.596;10.000;2022-08-04T08:03:14;26.00;60.50
59533;DHT22;45351;53.596;10.000;2022-08-04T08:05:41;26.00;60.50
59533;DHT22;45351;53.596;10.000;2022-08-04T08:08:08;26.00;60.40
59533;DHT22;45351;53.596;10.000;2022-08-04T08:10:37;26.00;60.50
59533;DHT22;45351;53.596;10.000;2022-08-04T08:13:04;26.00;60.30
59533;DHT22;45351;53.596;10.000;2022-08-04T08:15:32;26.00;60.30
59533;DHT22;45351;53.596;10.000;2022-08-04T08:17:59;26.00;60.30
59533;DHT22;45351;53.596;10.000;2022-08-04T08:20:29;26.00;60.20
59533;DHT22;45351;53.596;10.000;2022-08-04T08:22:57;26.00;60.20
59533;DHT22;45351;53.596;10.000;2022-08-04T08:25:24;26.00;60.20
59533;DHT22;45351;53.596;10.000;2022-08-04T08:27:51;26.00;60.10
59533;DHT22;45351;53.596;10.000;2022-08-04T08:30:18;26.00;60.10
59533;DHT22;45351;53.596;10.000;2022-08-04T08:32:45;26.00;60.10
59533;DHT22;45351;53.596;10.000;2022-08-04T08:35:11;26.00;60.00
59533;DHT22;45351;53.596;10.000;2022-08-04T08:37:51;26.00;60.00
59533;DHT22;45351;53.596;10.000;2022-08-04T08:40:28;26.00;59.90
59533;DHT22;45351;53.596;10.000;2022-08-04T08:43:18;26.00;59.80
59533;DHT22;45351;53.596;10.000;2022-08-04T08:45:57;26.00;59.70
59533;DHT22;45351;53.596;10.000;2022-08-04T08:48:55;26.00;59.70
59533;DHT22;45351;53.596;10.000;2022-08-04T08:51:43;26.00;59.60
59533;DHT22;45351;53.596;10.000;2022-08-04T08:57:36;26.00;59.50
59533;DHT22;45351;53.596;10.000;2022-08-04T09:00:11;26.00;59.50
59533;DHT22;45351;53.596;10.000;2022-08-04T09:03:16;26.00;59.40
59533;DHT22;45351;53.596;10.000;2022-08-04T09:09:08;26.00;59.30
59533;DHT22;45351;53.596;10.000;2022-08-04T09:11:41;26.00;59.30
59533;DHT22;45351;53.596;10.000;2022-08-04T09:14:17;26.00;59.80
59533;DHT22;45351;53.596;10.000;2022-08-04T09:16:51;26.00;59.20
59533;DHT22;45351;53.596;10.000;2022-08-04T09:19:22;26.00;59.20
59533;DHT22;45351;53.596;10.000;2022-08-04T09:21:57;26.00;59.10
59533;DHT22;45351;53.596;10.000;2022-08-04T09:24:34;26.00;59.00
59533;DHT22;45351;53.596;10.000;2022-08-04T09:27:08;26.00;59.00
59533;DHT22;45351;53.596;10.000;2022-08-04T09:29:46;26.00;58.90
59533;DHT22;45351;53.596;10.000;2022-08-04T09:32:22;26.00;58.80
59533;DHT22;45351;53.596;10.000;2022-08-04T09:35:02;26.00;58.80
59533;DHT22;45351;53.596;10.000;2022-08-04T09:37:35;26.00;58.80
59533;DHT22;45351;53.596;10.000;2022-08-04T09:40:06;26.00;58.70
59533;DHT22;45351;53.596;10.000;2022-08-04T09:42:43;26.00;58.60
59533;DHT22;45351;53.596;10.000;2022-08-04T09:45:18;26.00;58.50
59533;DHT22;45351;53.596;10.000;2022-08-04T09:47:54;26.10;58.50
59533;DHT22;45351;53.596;10.000;2022-08-04T09:50:32;26.10;58.40
59533;DHT22;45351;53.596;10.000;2022-08-04T09:53:10;26.10;58.20
59533;DHT22;45351;53.596;10.000;2022-08-04T09:55:47;26.10;58.10
59533;DHT22;45351;53.596;10.000;2022-08-04T09:58:23;26.10;58.10
59533;DHT22;45351;53.596;10.000;2022-08-04T10:00:59;26.10;58.10
59533;DHT22;45351;53.596;10.000;2022-08-04T10:03:31;26.10;58.00
59533;DHT22;45351;53.596;10.000;2022-08-04T10:06:07;26.10;57.90
59533;DHT22;45351;53.596;10.000;2022-08-04T10:08:56;26.10;57.90
59533;DHT22;45351;53.596;10.000;2022-08-04T10:11:35;26.10;57.80
59533;DHT22;45351;53.596;10.000;2022-08-04T10:14:17;26.10;57.70
59533;DHT22;45351;53.596;10.000;2022-08-04T10:16:55;26.10;57.60
59533;DHT22;45351;53.596;10.000;2022-08-04T10:19:26;26.10;57.60
59533;DHT22;45351;53.596;10.000;2022-08-04T10:22:01;26.10;57.60
59533;DHT22;45351;53.596;10.000;2022-08-04T10:24:37;26.10;57.50
59533;DHT22;45351;53.596;10.000;2022-08-04T10:27:09;26.10;57.50
59533;DHT22;45351;53.596;10.000;2022-08-04T10:29:42;26.10;57.50
59533;DHT22;45351;53.596;10.000;2022-08-04T10:32:16;26.10;57.40
59533;DHT22;45351;53.596;10.000;2022-08-04T10:34:58;26.10;57.40
59533;DHT22;45351;53.596;10.000;2022-08-04T10:37:28;26.10;57.40
59533;DHT22;45351;53.596;10.000;2022-08-04T10:40:01;26.10;57.40
59533;DHT22;45351;53.596;10.000;2022-08-04T10:42:55;26.10;57.30
59533;DHT22;45351;53.596;10.000;2022-08-04T10:45:28;26.10;57.30
59533;DHT22;45351;53.596;10.000;2022-08-04T10:48:05;26.10;57.30
59533;DHT22;45351;53.596;10.000;2022-08-04T10:50:36;26.10;57.30
59533;DHT22;45351;53.596;10.000;2022-08-04T10:53:08;26.10;57.20
59533;DHT22;45351;53.596;10.000;2022-08-04T10:55:41;26.10;57.20
59533;DHT22;45351;53.596;10.000;2022-08-04T10:58:17;26.10;57.20
59533;DHT22;45351;53.596;10.000;2022-08-04T11:00:45;26.20;57.20
59533;DHT22;45351;53.596;10.000;2022-08-04T11:03:19;26.10;57.10
59533;DHT22;45351;53.596;10.000;2022-08-04T11:05:49;26.20;57.20
59533;DHT22;45351;53.596;10.000;2022-08-04T11:08:21;26.20;57.20
59533;DHT22;45351;53.596;10.000;2022-08-04T11:10:56;26.20;57.10
59533;DHT22;45351;53.596;10.000;2022-08-04T11:13:31;26.20;57.00
59533;DHT22;45351;53.596;10.000;2022-08-04T11:16:02;26.20;57.00
59533;DHT22;45351;53.596;10.000;2022-08-04T11:18:36;26.20;56.90
59533;DHT22;45351;53.596;10.000;2022-08-04T11:21:11;26.20;56.80
59533;DHT22;45351;53.596;10.000;2022-08-04T11:23:47;26.20;56.70
59533;DHT22;45351;53.596;10.000;2022-08-04T11:26:20;26.20;56.70
59533;DHT22;45351;53.596;10.000;2022-08-04T11:28:53;26.20;56.60
59533;DHT22;45351;53.596;10.000;2022-08-04T11:31:27;26.20;56.60
59533;DHT22;45351;53.596;10.000;2022-08-04T11:34:03;26.20;56.50
59533;DHT22;45351;53.596;10.000;2022-08-04T11:36:37;26.20;56.30
59533;DHT22;45351;53.596;10.000;2022-08-04T11:39:08;26.20;56.30
59533;DHT22;45351;53.596;10.000;2022-08-04T11:41:41;26.20;56.30
59533;DHT22;45351;53.596;10.000;2022-08-04T11:44:19;26.20;56.10
59533;DHT22;45351;53.596;10.000;2022-08-04T11:46:50;26.20;56.00
59533;DHT22;45351;53.596;10.000;2022-08-04T11:49:30;26.20;55.90
59533;DHT22;45351;53.596;10.000;2022-08-04T11:52:00;26.20;55.80
59533;DHT22;45351;53.596;10.000;2022-08-04T11:54:27;26.20;55.70
59533;DHT22;45351;53.596;10.000;2022-08-04T11:56:56;26.20;55.50
59533;DHT22;45351;53.596;10.000;2022-08-04T11:59:23;26.20;55.50
59533;DHT22;45351;53.596;10.000;2022-08-04T12:02:05;26.20;55.70
59533;DHT22;45351;53.596;10.000;2022-08-04T12:04:43;26.20;55.40
59533;DHT22;45351;53.596;10.000;2022-08-04T12:07:16;26.20;55.40
59533;DHT22;45351;53.596;10.000;2022-08-04T12:09:51;26.20;55.30
59533;DHT22;45351;53.596;10.000;2022-08-04T12:12:25;26.20;55.20
59533;DHT22;45351;53.596;10.000;2022-08-04T12:14:58;26.20;55.20
59533;DHT22;45351;53.596;10.000;2022-08-04T12:17:34;26.20;55.00
59533;DHT22;45351;53.596;10.000;2022-08-04T12:20:04;26.30;55.10
59533;DHT22;45351;53.596;10.000;2022-08-04T12:22:36;26.30;55.20
59533;DHT22;45351;53.596;10.000;2022-08-04T12:25:08;26.30;55.00
59533;DHT22;45351;53.596;10.000;2022-08-04T12:27:40;26.30;55.30
59533;DHT22;45351;53.596;10.000;2022-08-04T12:30:11;26.30;54.90
59533;DHT22;45351;53.596;10.000;2022-08-04T12:32:41;26.30;55.00
59533;DHT22;45351;53.596;10.000;2022-08-04T12:35:14;26.30;55.00
59533;DHT22;45351;53.596;10.000;2022-08-04T12:37:49;26.30;54.80
59533;DHT22;45351;53.596;10.000;2022-08-04T12:40:21;26.30;54.50
59533;DHT22;45351;53.596;10.000;2022-08-04T12:42:54;26.30;54.60
59533;DHT22;45351;53.596;10.000;2022-08-04T12:45:47;26.30;54.90
59533;DHT22;45351;53.596;10.000;2022-08-04T12:48:35;26.30;55.00
59533;DHT22;45351;53.596;10.000;2022-08-04T12:51:06;26.30;55.10
59533;DHT22;45351;53.596;10.000;2022-08-04T12:53:37;26.40;55.00
59533;DHT22;45351;53.596;10.000;2022-08-04T12:56:05;26.40;55.00
59533;DHT22;45351;53.596;10.000;2022-08-04T12:58:36;26.40;54.90
59533;DHT22;45351;53.596;10.000;2022-08-04T13:01:06;26.40;55.00
59533;DHT22;45351;53.596;10.000;2022-08-04T13:03:37;26.40;54.60
59533;DHT22;45351;53.596;10.000;2022-08-04T13:06:08;26.40;54.70
59533;DHT22;45351;53.596;10.000;2022-08-04T13:08:38;26.40;54.60
59533;DHT22;45351;53.596;10.000;2022-08-04T13:11:07;26.40;54.50
59533;DHT22;45351;53.596;10.000;2022-08-04T13:13:37;26.40;54.40
59533;DHT22;45351;53.596;10.000;2022-08-04T13:16:05;26.40;54.40
59533;DHT22;45351;53.596;10.000;2022-08-04T13:18:35;26.40;54.30
59533;DHT22;45351;53.596;10.000;2022-08-04T13:21:12;26.40;54.20
59533;DHT22;45351;53.596;10.000;2022-08-04T13:23:40;26.40;54.20
59533;DHT22;45351;53.596;10.000;2022-08-04T13:26:10;26.40;54.10
59533;DHT22;45351;53.596;10.000;2022-08-04T13:28:40;26.40;53.80
59533;DHT22;45351;53.596;10.000;2022-08-04T13:31:12;26.40;53.80
59533;DHT22;45351;53.596;10.000;2022-08-04T13:33:42;26.40;53.60
59533;DHT22;45351;53.596;10.000;2022-08-04T13:36:11;26.40;54.00
59533;DHT22;45351;53.596;10.000;2022-08-04T13:38:44;26.40;53.70
59533;DHT22;45351;53.596;10.000;2022-08-04T13:41:12;26.40;53.80
59533;DHT22;45351;53.596;10.000;2022-08-04T13:43:41;26.40;53.80
59533;DHT22;45351;53.596;10.000;2022-08-04T13:46:13;26.40;53.60
59533;DHT22;45351;53.596;10.000;2022-08-04T13:48:42;26.40;53.60
59533;DHT22;45351;53.596;10.000;2022-08-04T13:51:11;26.40;53.60
59533;DHT22;45351;53.596;10.000;2022-08-04T13:53:39;26.40;53.40
59533;DHT22;45351;53.596;10.000;2022-08-04T13:56:09;26.40;53.50
59533;DHT22;45351;53.596;10.000;2022-08-04T13:58:41;26.40;53.40
59533;DHT22;45351;53.596;10.000;2022-08-04T14:01:12;26.40;53.40
59533;DHT22;45351;53.596;10.000;2022-08-04T14:03:44;26.40;53.50
59533;DHT22;45351;53.596;10.000;2022-08-04T14:06:22;26.40;53.30
59533;DHT22;45351;53.596;10.000;2022-08-04T14:08:52;26.40;53.30
59533;DHT22;45351;53.596;10.000;2022-08-04T14:11:22;26.40;53.30
59533;DHT22;45351;53.596;10.000;2022-08-04T14:13:49;26.40;53.30
59533;DHT22;45351;53.596;10.000;2022-08-04T14:16:18;26.40;53.40
59533;DHT22;45351;53.596;10.000;2022-08-04T14:18:45;26.40;53.30
59533;DHT22;45351;53.596;10.000;2022-08-04T14:21:14;26.40;53.30
59533;DHT22;45351;53.596;10.000;2022-08-04T14:23:47;26.40;53.30
59533;DHT22;45351;53.596;10.000;2022-08-04T14:26:17;26.40;53.00
59533;DHT22;45351;53.596;10.000;2022-08-04T14:28:45;26.40;53.20
59533;DHT22;45351;53.596;10.000;2022-08-04T14:31:14;26.40;53.00
59533;DHT22;45351;53.596;10.000;2022-08-04T14:33:43;26.40;53.10
59533;DHT22;45351;53.596;10.000;2022-08-04T14:36:11;26.40;53.00
59533;DHT22;45351;53.596;10.000;2022-08-04T14:38:49;26.40;53.00
59533;DHT22;45351;53.596;10.000;2022-08-04T14:41:18;26.40;53.00
59533;DHT22;45351;53.596;10.000;2022-08-04T14:43:47;26.40;53.00
59533;DHT22;45351;53.596;10.000;2022-08-04T14:46:14;26.40;52.90
59533;DHT22;45351;53.596;10.000;2022-08-04T14:48:59;26.40;53.00
59533;DHT22;45351;53.596;10.000;2022-08-04T14:51:26;26.40;52.80
59533;DHT22;45351;53.596;10.000;2022-08-04T14:53:55;26.40;53.00
59533;DHT22;45351;53.596;10.000;2022-08-04T14:56:22;26.40;53.00
59533;DHT22;45351;53.596;10.000;2022-08-04T14:58:58;26.40;53.10
59533;DHT22;45351;53.596;10.000;2022-08-04T15:01:26;26.40;53.10
59533;DHT22;45351;53.596;10.000;2022-08-04T15:03:53;26.50;53.10
59533;DHT22;45351;53.596;10.000;2022-08-04T15:06:22;26.40;53.10
59533;DHT22;45351;53.596;10.000;2022-08-04T15:08:52;26.40;53.20
59533;DHT22;45351;53.596;10.000;2022-08-04T15:11:21;26.50;53.30
59533;DHT22;45351;53.596;10.000;2022-08-04T15:13:48;26.50;53.40
59533;DHT22;45351;53.596;10.000;2022-08-04T15:16:15;26.50;53.70
59533;DHT22;45351;53.596;10.000;2022-08-04T15:18:42;26.50;53.70
59533;DHT22;45351;53.596;10.000;2022-08-04T15:21:09;26.50;53.80
59533;DHT22;45351;53.596;10.000;2022-08-04T15:23:37;26.50;54.90
59533;DHT22;45351;53.596;10.000;2022-08-04T15:26:06;26.50;55.50
59533;DHT22;45351;53.596;10.000;2022-08-04T15:28:38;26.50;56.10
59533;DHT22;45351;53.596;10.000;2022-08-04T15:31:07;26.50;56.60
59533;DHT22;45351;53.596;10.000;2022-08-04T15:33:38;26.60;56.70
59533;DHT22;45351;53.596;10.000;2022-08-04T15:36:12;26.60;56.70
59533;DHT22;45351;53.596;10.000;2022-08-04T15:38:48;26.60;56.80
59533;DHT22;45351;53.596;10.000;2022-08-04T15:41:24;26.60;56.90
59533;DHT22;45351;53.596;10.000;2022-08-04T15:44:05;26.60;56.80
59533;DHT22;45351;53.596;10.000;2022-08-04T15:50:02;26.60;56.90
59533;DHT22;45351;53.596;10.000;2022-08-04T15:53:00;26.60;56.90
59533;DHT22;45351;53.596;10.000;2022-08-04T15:55:31;26.50;56.80
59533;DHT22;45351;53.596;10.000;2022-08-04T15:58:00;26.50;57.00
59533;DHT22;45351;53.596;10.000;2022-08-04T16:03:41;26.50;57.00
59533;DHT22;45351;53.596;10.000;2022-08-04T16:06:40;26.60;57.00
59533;DHT22;45351;53.596;10.000;2022-08-04T16:09:08;26.50;56.90
59533;DHT22;45351;53.596;10.000;2022-08-04T16:11:45;26.50;57.00
59533;DHT22;45351;53.596;10.000;2022-08-04T16:14:12;26.50;56.90
59533;DHT22;45351;53.596;10.000;2022-08-04T16:16:47;26.50;57.00
59533;DHT22;45351;53.596;10.000;2022-08-04T16:19:44;26.50;57.00
59533;DHT22;45351;53.596;10.000;2022-08-04T16:22:10;26.50;57.10
59533;DHT22;45351;53.596;10.000;2022-08-04T16:24:39;26.50;57.20
59533;DHT22;45351;53.596;10.000;2022-08-04T16:27:07;26.50;57.20
59533;DHT22;45351;53.596;10.000;2022-08-04T16:29:36;26.50;57.30
59533;DHT22;45351;53.596;10.000;2022-08-04T16:32:16;26.50;57.40
59533;DHT22;45351;53.596;10.000;2022-08-04T16:34:46;26.40;57.40
59533;DHT22;45351;53.596;10.000;2022-08-04T16:37:14;26.40;57.50
59533;DHT22;45351;53.596;10.000;2022-08-04T16:39:43;26.40;57.50